Time;durP1;ratioP1;P1;durP2;ratioP2;P2;SDS_P1;SDS_P2;PMS_P1;PMS_P2;Temp;Humidity;BMP_temperature;BMP_pressure;BME280_temperature;BME280_humidity;BME280_pressure;Samples;Min_cycle;Max_cycle;Signal;HPM_P1;HPM_P2
2022/03/16 00:01:54;;;;;;;;;19.25;19.25;;;;;12.46;70.95;101886.66;5029670;28;49678;-63
2022/03/16 00:04:20;;;;;;;;;22.25;22.00;;;;;12.47;71.18;101877.00;5028977;28;50016;-63
2022/03/16 00:06:46;;;;;;;;;22.00;20.25;;;;;12.43;71.03;101876.00;5029577;28;50108;-65
2022/03/16 00:09:11;;;;;;;;;19.00;17.75;;;;;12.43;71.35;101877.75;5029514;28;49886;-63
2022/03/16 00:11:36;;;;;;;;;24.00;19.25;;;;;12.40;71.63;101870.66;5030367;28;50100;-66
2022/03/16 00:14:02;;;;;;;;;21.75;20.50;;;;;12.25;71.22;101854.34;5029475;28;50629;-67
2022/03/16 00:16:27;;;;;;;;;22.75;22.50;;;;;12.41;71.39;101871.53;5029301;28;49609;-66
2022/03/16 00:18:52;;;;;;;;;24.00;24.00;;;;;12.31;71.47;101860.72;5029103;28;49731;-64
2022/03/16 00:21:18;;;;;;;;;22.00;19.50;;;;;12.49;71.31;101881.47;5028388;28;50042;-65
2022/03/16 00:23:43;;;;;;;;;21.75;21.75;;;;;11.88;71.05;101774.28;5029047;28;49738;-64
2022/03/16 00:26:09;;;;;;;;;16.00;16.00;;;;;12.46;71.33;101873.47;5029696;28;49755;-64
2022/03/16 00:28:34;;;;;;;;;24.75;23.00;;;;;12.30;71.14;101855.41;5029434;28;49799;-63
2022/03/16 00:31:02;;;;;;;;;22.75;22.25;;;;;11.87;71.46;101788.28;5029270;28;49796;-65
2022/03/16 00:33:27;;;;;;;;;19.75;17.00;;;;;12.38;71.32;101874.97;5028839;28;49702;-67
2022/03/16 00:35:53;;;;;;;;;23.00;18.50;;;;;12.37;71.35;101869.66;5029087;28;49785;-63
2022/03/16 00:38:18;;;;;;;;;22.00;19.25;;;;;12.33;71.37;101864.28;5028855;28;49780;-69
2022/03/16 00:40:43;;;;;;;;;13.75;12.00;;;;;12.28;71.32;101859.75;5029435;28;50146;-63
2022/03/16 00:43:09;;;;;;;;;22.25;20.75;;;;;12.38;71.43;101867.06;5028464;28;49745;-67
2022/03/16 00:45:34;;;;;;;;;23.00;21.50;;;;;12.25;71.40;101852.63;5029065;28;50137;-64
2022/03/16 00:47:59;;;;;;;;;23.25;21.50;;;;;12.35;71.54;101860.81;5029182;28;50200;-64
2022/03/16 00:50:25;;;;;;;;;24.00;21.25;;;;;12.36;71.24;101852.97;5029612;28;50287;-64
2022/03/16 00:52:50;;;;;;;;;22.50;18.75;;;;;12.04;71.19;101805.47;5028835;28;50251;-64
2022/03/16 00:55:16;;;;;;;;;18.00;18.00;;;;;12.40;71.32;101857.47;5028637;28;49675;-66
2022/03/16 00:57:41;;;;;;;;;24.25;20.25;;;;;12.32;71.45;101846.69;5029382;28;50153;-64
2022/03/16 01:00:07;;;;;;;;;22.00;20.00;;;;;12.28;71.36;101834.31;5032646;28;49758;-66
2022/03/16 01:02:33;;;;;;;;;20.50;19.75;;;;;12.26;71.33;101832.47;5032163;28;49829;-64
2022/03/16 01:04:59;;;;;;;;;21.75;19.25;;;;;12.33;71.41;101851.13;5032398;28;49831;-64
2022/03/16 01:07:24;;;;;;;;;19.50;16.00;;;;;12.21;71.59;101832.31;5032407;28;49821;-63
2022/03/16 01:09:50;;;;;;;;;16.00;15.75;;;;;12.18;71.64;101823.44;5032204;28;49823;-63
2022/03/16 01:12:16;;;;;;;;;19.00;18.25;;;;;12.18;71.25;101815.53;5031936;28;50514;-63
2022/03/16 01:14:41;;;;;;;;;18.25;17.00;;;;;12.23;71.74;101835.00;5032173;28;49815;-64
2022/03/16 01:17:06;;;;;;;;;19.25;18.00;;;;;12.23;71.05;101827.09;5032096;28;49913;-67
2022/03/16 01:19:34;;;;;;;;;21.50;21.50;;;;;12.14;71.37;101818.91;5014331;28;50067;-65
2022/03/16 01:22:01;;;;;;;;;16.25;15.50;;;;;12.05;71.34;101798.47;5031967;28;50566;-65
2022/03/16 01:24:26;;;;;;;;;20.00;17.50;;;;;12.16;71.24;101807.59;5032471;28;50184;-63
2022/03/16 01:26:52;;;;;;;;;18.25;17.25;;;;;12.13;71.09;101811.88;5031893;28;50011;-65
2022/03/16 01:29:17;;;;;;;;;19.50;19.25;;;;;12.24;71.52;101823.63;5032122;28;49901;-64
2022/03/16 01:31:42;;;;;;;;;21.25;18.75;;;;;12.01;71.16;101792.22;5031552;28;50384;-63
2022/03/16 01:34:08;;;;;;;;;16.75;15.75;;;;;12.16;71.29;101817.22;5032089;28;49925;-67
2022/03/16 01:36:33;;;;;;;;;25.75;22.25;;;;;12.13;71.36;101809.22;5031802;28;49897;-63
2022/03/16 01:38:58;;;;;;;;;17.00;16.50;;;;;12.11;71.14;101803.94;5032028;28;49903;-63
2022/03/16 01:41:24;;;;;;;;;20.00;17.75;;;;;11.89;71.15;101781.31;5031807;28;49715;-63
2022/03/16 01:43:56;;;;;;;;;19.00;17.50;;;;;11.61;71.24;101736.53;5031774;28;49808;-63
2022/03/16 01:46:21;;;;;;;;;17.25;17.25;;;;;11.44;71.01;101702.69;5031746;28;49684;-63
2022/03/16 01:48:47;;;;;;;;;21.00;20.25;;;;;12.02;71.38;101822.06;5031816;28;49914;-63
2022/03/16 01:51:13;;;;;;;;;16.25;16.00;;;;;12.07;71.33;101806.44;5031584;28;49758;-63
2022/03/16 01:53:41;;;;;;;;;17.75;15.75;;;;;12.10;71.25;101806.50;5031318;28;50187;-63
2022/03/16 01:56:08;;;;;;;;;19.75;17.50;;;;;12.01;71.04;101794.84;5031603;28;49875;-63
2022/03/16 01:58:33;;;;;;;;;19.50;17.75;;;;;12.09;70.79;101802.09;5030813;28;49734;-62
2022/03/16 02:00:59;;;;;;;;;18.00;16.00;;;;;12.09;70.97;101808.25;5031127;28;50810;-62
2022/03/16 02:03:24;;;;;;;;;15.50;15.50;;;;;12.08;70.83;101811.75;5031461;28;49666;-62
2022/03/16 02:05:51;;;;;;;;;15.00;15.00;;;;;12.01;70.76;101796.59;5031768;28;50047;-63
2022/03/16 02:08:16;;;;;;;;;20.00;17.00;;;;;12.11;70.89;101813.56;5031356;28;49806;-63
2022/03/16 02:10:42;;;;;;;;;19.00;17.50;;;;;12.07;71.04;101819.59;5029924;28;51014;-63
2022/03/16 02:13:10;;;;;;;;;19.00;18.00;;;;;12.12;70.86;101815.34;5031490;28;49689;-63
2022/03/16 02:15:35;;;;;;;;;19.00;17.50;;;;;12.12;70.44;101817.97;5031485;28;50016;-64
2022/03/16 02:18:00;;;;;;;;;15.00;15.00;;;;;12.08;70.86;101811.75;5030779;28;50225;-63
2022/03/16 02:20:27;;;;;;;;;19.00;18.50;;;;;12.02;70.82;101806.25;5013272;28;51337;-63
2022/03/16 02:23:00;;;;;;;;;20.50;19.75;;;;;12.01;70.88;101809.75;5030632;28;49720;-64
2022/03/16 02:25:27;;;;;;;;;15.75;14.75;;;;;11.99;70.74;101814.06;5030916;28;49895;-63
2022/03/16 02:27:53;;;;;;;;;15.50;15.25;;;;;11.54;70.89;101729.28;5031101;28;49902;-64
2022/03/16 02:30:23;;;;;;;;;21.25;19.25;;;;;11.95;70.99;101804.28;5030973;28;50869;-64
2022/03/16 02:32:49;;;;;;;;;19.50;17.25;;;;;11.94;71.28;101806.00;5031150;28;49821;-65
2022/03/16 02:35:15;;;;;;;;;19.00;16.50;;;;;11.91;71.09;101789.25;5031664;28;49999;-65
2022/03/16 02:37:40;;;;;;;;;16.50;14.50;;;;;11.80;70.96;101770.50;5031090;28;49816;-63
2022/03/16 02:40:08;;;;;;;;;19.00;18.25;;;;;11.93;71.00;101790.19;5030434;28;49871;-63
2022/03/16 02:42:34;;;;;;;;;19.00;19.00;;;;;11.92;70.78;101791.94;5030827;28;49840;-64
2022/03/16 02:45:00;;;;;;;;;14.00;13.00;;;;;11.81;71.04;101776.66;5030919;28;49746;-64
2022/03/16 02:47:27;;;;;;;;;22.50;18.00;;;;;11.84;71.41;101785.53;5031103;28;49708;-62
2022/03/16 02:49:53;;;;;;;;;18.00;18.00;;;;;11.39;71.33;101714.81;5012743;28;50547;-64
2022/03/16 02:52:18;;;;;;;;;18.50;16.75;;;;;11.75;71.09;101772.03;5030965;28;49655;-63
2022/03/16 02:54:43;;;;;;;;;20.75;18.00;;;;;11.68;70.99;101759.56;5030556;28;49855;-63
2022/03/16 02:57:09;;;;;;;;;21.25;18.50;;;;;11.81;71.54;101782.81;5030620;28;49760;-64
2022/03/16 03:04:40;;;;;;;;;19.50;17.75;;;;;11.60;71.47;101761.94;4987456;28;49720;-63
2022/03/16 03:07:07;;;;;;;;;23.00;21.25;;;;;11.66;71.62;101788.41;4991016;28;49752;-63
2022/03/16 03:09:32;;;;;;;;;20.75;20.75;;;;;11.41;71.91;101749.03;4990475;28;49730;-63
2022/03/16 03:11:59;;;;;;;;;27.00;23.00;;;;;11.67;71.73;101798.09;4990606;28;49756;-64
2022/03/16 03:14:28;;;;;;;;;16.75;16.50;;;;;11.65;71.86;101796.25;4990797;28;49729;-62
2022/03/16 03:16:54;;;;;;;;;19.00;19.00;;;;;11.60;71.95;101785.59;4990746;28;49696;-62
2022/03/16 03:19:21;;;;;;;;;19.50;18.50;;;;;11.67;71.73;101792.81;4989870;28;50416;-63
2022/03/16 03:21:47;;;;;;;;;20.75;18.50;;;;;11.68;71.80;101783.22;4989328;28;49801;-63
2022/03/16 03:24:12;;;;;;;;;22.25;21.00;;;;;11.57;71.97;101774.06;4990748;28;49996;-62
2022/03/16 03:26:37;;;;;;;;;26.25;20.75;;;;;11.65;71.79;101786.63;4990678;28;49757;-63
2022/03/16 03:29:03;;;;;;;;;20.00;18.25;;;;;11.59;72.03;101780.31;4990131;28;49831;-63
2022/03/16 03:31:28;;;;;;;;;26.50;20.00;;;;;11.64;71.83;101783.97;4990679;28;49812;-63
2022/03/16 03:33:53;;;;;;;;;21.75;21.00;;;;;11.41;72.00;101746.41;4990607;28;49636;-62
2022/03/16 03:36:20;;;;;;;;;23.75;22.50;;;;;11.60;72.14;101777.72;4990287;28;50072;-63
2022/03/16 03:38:45;;;;;;;;;23.00;20.75;;;;;11.60;72.22;101769.81;4990182;28;49678;-62
2022/03/16 03:41:11;;;;;;;;;25.25;21.50;;;;;11.65;71.93;101796.25;4990316;28;49833;-62
2022/03/16 03:43:36;;;;;;;;;25.75;23.00;;;;;11.68;72.35;101784.13;4990586;28;50156;-63
2022/03/16 03:46:02;;;;;;;;;23.00;22.50;;;;;11.47;71.98;101749.22;4990183;28;49863;-63
2022/03/16 03:48:27;;;;;;;;;29.00;29.00;;;;;11.69;72.14;101782.38;4989991;28;50175;-63
2022/03/16 03:50:53;;;;;;;;;22.75;21.75;;;;;11.65;72.05;101770.84;4990415;28;49927;-62
2022/03/16 03:53:18;;;;;;;;;29.50;28.75;;;;;11.72;71.94;101785.09;4990726;28;50525;-63
2022/03/16 03:55:43;;;;;;;;;31.50;26.75;;;;;11.39;71.87;101721.81;4990278;28;49814;-62
2022/03/16 03:58:09;;;;;;;;;28.50;25.50;;;;;11.66;72.09;101775.25;4972282;28;52124;-63
2022/03/16 04:00:34;;;;;;;;;30.50;29.50;;;;;11.65;72.41;101765.59;4990186;28;49629;-62
2022/03/16 04:02:59;;;;;;;;;24.25;21.25;;;;;11.57;71.95;101742.50;4989794;28;49780;-63
2022/03/16 04:05:25;;;;;;;;;23.25;22.00;;;;;11.76;72.16;101779.97;4990034;28;50020;-63
2022/03/16 04:07:50;;;;;;;;;26.00;24.00;;;;;11.62;71.62;101754.97;4989818;28;50368;-63
2022/03/16 04:10:16;;;;;;;;;25.75;22.75;;;;;11.71;71.81;101771.06;4989981;28;49682;-63
2022/03/16 04:12:41;;;;;;;;;24.25;22.75;;;;;11.64;71.64;101758.53;4990054;28;49742;-63
2022/03/16 04:15:07;;;;;;;;;22.50;22.50;;;;;11.67;72.10;101765.63;4990419;28;49727;-63
2022/03/16 04:17:33;;;;;;;;;36.25;25.50;;;;;11.68;72.13;101763.09;4989431;28;51037;-62
2022/03/16 04:19:58;;;;;;;;;29.00;26.50;;;;;11.65;72.17;101756.81;4989976;28;49714;-65
2022/03/16 04:22:28;;;;;;;;;35.50;23.25;;;;;11.50;72.15;101732.66;4989590;28;49805;-62
2022/03/16 04:24:55;;;;;;;;;27.25;21.50;;;;;11.46;72.13;101726.38;4990350;28;50122;-62
2022/03/16 04:27:20;;;;;;;;;35.75;33.50;;;;;11.28;72.35;101700.38;4989819;28;49916;-62
2022/03/16 04:29:46;;;;;;;;;26.50;24.00;;;;;11.51;72.58;101747.59;4989771;28;49766;-62
2022/03/16 04:32:11;;;;;;;;;22.50;20.75;;;;;11.48;72.50;101748.38;4971792;28;49699;-63
2022/03/16 04:34:37;;;;;;;;;29.25;24.50;;;;;11.23;72.56;101712.50;4993513;28;49919;-62
2022/03/16 04:37:02;;;;;;;;;24.75;24.75;;;;;11.26;72.54;101720.47;4993026;28;49897;-62
2022/03/16 04:39:28;;;;;;;;;21.00;21.00;;;;;11.42;72.54;101730.66;4986644;28;49546;-62
2022/03/16 04:41:53;;;;;;;;;32.00;26.75;;;;;11.21;72.81;101687.03;4993074;28;49823;-62
2022/03/16 04:44:18;;;;;;;;;18.50;17.25;;;;;11.40;72.91;101727.09;4993122;28;49949;-62
2022/03/16 04:46:44;;;;;;;;;21.50;20.25;;;;;11.39;72.59;101724.44;4992563;28;49608;-62
2022/03/16 04:49:09;;;;;;;;;31.00;26.50;;;;;11.35;72.52;101719.91;4993062;28;49791;-62
2022/03/16 04:51:34;;;;;;;;;27.00;26.00;;;;;11.32;72.67;101728.59;4992961;28;50013;-62
2022/03/16 04:54:00;;;;;;;;;21.25;16.00;;;;;11.23;72.79;101719.50;4993093;28;49627;-62
2022/03/16 04:56:25;;;;;;;;;22.25;21.75;;;;;11.13;72.52;101698.16;4992435;28;49608;-74
2022/03/16 04:58:50;;;;;;;;;23.25;23.25;;;;;11.18;72.77;101701.81;4992707;28;49651;-62
2022/03/16 05:01:16;;;;;;;;;24.25;23.00;;;;;11.36;72.75;101746.22;4991912;28;49989;-62
2022/03/16 05:03:41;;;;;;;;;27.00;27.00;;;;;11.15;73.44;101722.75;4992867;28;49903;-62
2022/03/16 05:06:07;;;;;;;;;27.25;25.75;;;;;11.32;72.78;101738.22;4974773;28;51481;-63
2022/03/16 05:08:37;;;;;;;;;27.75;25.50;;;;;11.09;72.79;101704.13;4992713;28;49842;-62
2022/03/16 05:11:03;;;;;;;;;29.00;25.75;;;;;11.26;73.38;101730.09;4992705;28;49992;-62
2022/03/16 05:13:29;;;;;;;;;28.50;24.25;;;;;11.27;73.17;101729.25;4992870;28;50000;-63
2022/03/16 05:15:54;;;;;;;;;23.50;20.00;;;;;11.25;73.38;101723.97;4992258;28;50910;-62
2022/03/16 05:18:20;;;;;;;;;31.00;28.50;;;;;11.26;73.09;101724.84;4992211;28;49810;-63
2022/03/16 05:20:45;;;;;;;;;27.25;26.00;;;;;11.26;73.42;101723.09;4992448;28;49803;-64
2022/03/16 05:23:10;;;;;;;;;24.50;24.50;;;;;11.26;73.41;101731.00;4992696;28;49803;-63
2022/03/16 05:25:36;;;;;;;;;27.75;21.00;;;;;11.05;73.42;101702.25;4992863;28;51157;-64
2022/03/16 05:28:01;;;;;;;;;26.50;24.75;;;;;11.26;73.27;101738.88;4992372;28;49758;-65
2022/03/16 05:30:27;;;;;;;;;24.25;21.25;;;;;11.15;73.43;101721.88;4992594;28;50427;-66
2022/03/16 05:32:55;;;;;;;;;30.25;29.00;;;;;11.27;73.49;101743.28;4961623;28;49858;-65
2022/03/16 05:35:21;;;;;;;;;24.50;21.00;;;;;11.23;73.25;101744.03;4991873;28;50581;-64
2022/03/16 05:37:46;;;;;;;;;24.00;23.00;;;;;11.30;73.24;101755.66;4992115;28;49990;-63
2022/03/16 05:40:12;;;;;;;;;22.00;21.50;;;;;11.18;73.53;101740.34;4992378;28;49892;-63
2022/03/16 05:42:37;;;;;;;;;32.50;30.00;;;;;11.36;73.60;101761.09;4992426;28;49858;-65
2022/03/16 05:45:05;;;;;;;;;23.75;23.25;;;;;11.33;73.51;101747.88;4991800;28;49685;-63
2022/03/16 05:47:31;;;;;;;;;27.75;25.50;;;;;11.26;73.18;101743.25;4991711;28;49732;-63
2022/03/16 05:49:56;;;;;;;;;28.25;26.25;;;;;11.44;73.17;101762.25;4991981;28;49686;-66
2022/03/16 05:52:23;;;;;;;;;36.00;30.00;;;;;11.42;73.33;101754.34;4992107;28;49831;-64
2022/03/16 05:54:50;;;;;;;;;24.25;24.00;;;;;11.30;73.10;101732.91;4991892;28;50664;-63
2022/03/16 05:57:16;;;;;;;;;19.75;19.75;;;;;11.35;72.96;101738.28;4991910;28;49767;-64
2022/03/16 05:59:43;;;;;;;;;25.25;23.25;;;;;10.85;73.37;101659.56;4991744;28;49790;-62
2022/03/16 06:02:09;;;;;;;;;25.75;24.25;;;;;11.41;73.02;101757.81;4992268;28;49723;-62
2022/03/16 06:04:35;;;;;;;;;32.50;30.50;;;;;11.40;73.38;101761.28;4991567;28;49821;-64
2022/03/16 06:07:01;;;;;;;;;27.75;24.00;;;;;11.43;73.25;101755.22;4991542;28;49821;-63
2022/03/16 06:09:26;;;;;;;;;26.25;22.75;;;;;11.44;73.19;101763.16;4991841;28;49740;-63
2022/03/16 06:11:51;;;;;;;;;34.50;28.00;;;;;11.38;72.99;101747.16;4991938;28;49772;-65
2022/03/16 06:14:17;;;;;;;;;29.50;26.00;;;;;11.47;73.42;101755.34;4991370;28;56886;-63
2022/03/16 06:16:44;;;;;;;;;29.25;26.00;;;;;11.15;73.28;101709.63;4991555;28;49765;-68
2022/03/16 06:19:09;;;;;;;;;31.75;28.50;;;;;11.47;72.84;101754.47;4991828;28;49725;-68
2022/03/16 06:21:35;;;;;;;;;29.75;26.75;;;;;11.30;73.07;101722.38;4991933;28;49778;-63
2022/03/16 06:24:00;;;;;;;;;29.25;27.75;;;;;11.50;73.09;101746.69;4991426;28;56223;-63
2022/03/16 06:26:25;;;;;;;;;31.00;29.50;;;;;11.49;73.09;101747.53;4991535;28;49932;-65
2022/03/16 06:28:51;;;;;;;;;26.75;25.50;;;;;11.47;72.98;101758.00;4991602;28;49915;-65
2022/03/16 06:31:16;;;;;;;;;29.00;25.50;;;;;11.49;73.54;101762.44;4991338;28;49891;-63
2022/03/16 06:33:41;;;;;;;;;33.50;26.75;;;;;11.30;73.26;101737.28;4991256;28;50741;-63
2022/03/16 06:36:07;;;;;;;;;35.25;29.50;;;;;11.11;73.11;101698.97;4991519;28;49746;-66
2022/03/16 06:38:32;;;;;;;;;30.75;28.75;;;;;11.38;73.15;101747.16;4991128;28;49651;-63
2022/03/16 06:40:57;;;;;;;;;37.75;34.50;;;;;11.55;73.01;101773.13;4991678;28;50014;-62
2022/03/16 06:43:23;;;;;;;;;33.50;30.25;;;;;11.58;73.38;101786.38;4973676;28;50610;-66
2022/03/16 06:45:48;;;;;;;;;27.25;25.50;;;;;11.60;73.28;101782.97;4990449;28;49794;-65
2022/03/16 06:48:13;;;;;;;;;43.50;37.25;;;;;11.44;73.00;101750.00;4991049;28;50386;-62
2022/03/16 06:50:39;;;;;;;;;31.25;30.75;;;;;11.65;73.11;101780.47;4991425;28;49893;-65
2022/03/16 06:53:04;;;;;;;;;29.25;26.00;;;;;11.56;72.55;101767.91;4991281;28;50642;-76
2022/03/16 06:55:30;;;;;;;;;35.50;31.25;;;;;11.73;72.54;101786.88;4973383;28;49854;-68
2022/03/16 06:57:55;;;;;;;;;29.25;26.25;;;;;11.55;72.72;101747.72;4991256;28;50385;-66
2022/03/16 07:00:21;;;;;;;;;31.50;30.75;;;;;11.80;72.68;101798.53;4991397;28;49634;-63
2022/03/16 07:03:00;;;;;;;;;35.50;29.50;;;;;11.73;72.69;101784.25;4990284;28;49924;-64
2022/03/16 07:05:30;;;;;;;;;40.00;36.25;;;;;11.86;72.50;101796.09;4990337;28;50059;-63
2022/03/16 07:08:02;;;;;;;;;36.25;31.50;;;;;11.75;72.57;101778.19;4990392;28;51490;-64
2022/03/16 07:10:28;;;;;;;;;36.50;33.50;;;;;11.85;72.21;101776.78;4972609;28;49895;-61
2022/03/16 07:12:54;;;;;;;;;35.25;33.25;;;;;11.92;72.36;101789.28;4990476;28;50413;-64
2022/03/16 07:15:20;;;;;;;;;35.25;32.25;;;;;11.83;72.35;101781.09;4991043;28;49759;-67
2022/03/16 07:17:46;;;;;;;;;33.75;33.50;;;;;11.68;72.13;101749.94;4990845;28;49900;-65
2022/03/16 07:20:12;;;;;;;;;39.50;38.00;;;;;11.92;72.25;101797.19;4957399;28;49893;-65
2022/03/16 07:22:38;;;;;;;;;36.50;30.25;;;;;11.90;72.23;101774.31;4987474;28;49801;-66
2022/03/16 07:25:04;;;;;;;;;43.75;35.25;;;;;11.87;71.82;101761.97;4990795;28;49911;-64
2022/03/16 07:27:30;;;;;;;;;32.75;31.00;;;;;11.94;72.04;101768.28;4990964;28;49851;-68
2022/03/16 07:29:56;;;;;;;;;35.50;33.25;;;;;12.05;71.64;101782.66;4991020;28;50209;-61
2022/03/16 07:32:22;;;;;;;;;30.25;28.75;;;;;11.94;71.85;101761.28;4990435;28;50617;-68
2022/03/16 07:34:48;;;;;;;;;37.25;35.25;;;;;11.96;71.64;101763.97;4990681;28;49666;-66
2022/03/16 07:37:13;;;;;;;;;37.00;33.50;;;;;12.01;71.81;101770.28;4990807;28;49668;-69
2022/03/16 07:39:39;;;;;;;;;33.25;31.25;;;;;12.14;71.47;101787.31;4990519;28;49988;-61
2022/03/16 07:42:04;;;;;;;;;36.75;33.25;;;;;12.02;71.46;101770.31;4972299;28;51918;-62
2022/03/16 07:44:29;;;;;;;;;34.00;31.25;;;;;12.00;71.08;101776.38;4990238;28;50103;-64
2022/03/16 07:46:55;;;;;;;;;37.75;31.75;;;;;12.17;71.34;101792.72;4999510;28;49989;-61
2022/03/16 07:49:20;;;;;;;;;37.75;34.25;;;;;11.84;71.18;101716.22;5007862;28;49231;-68
2022/03/16 07:51:46;;;;;;;;;34.50;28.50;;;;;12.27;71.17;101789.50;5000316;28;49639;-66
2022/03/16 07:54:11;;;;;;;;;37.25;34.50;;;;;12.23;70.96;101779.72;4981124;28;49668;-62
2022/03/16 07:56:37;;;;;;;;;41.25;34.25;;;;;12.12;70.72;101757.44;4991933;28;49817;-65
2022/03/16 07:59:02;;;;;;;;;38.50;33.75;;;;;12.15;70.48;101753.16;4986259;28;49737;-62
2022/03/16 08:01:28;;;;;;;;;29.25;29.25;;;;;12.30;70.47;101768.53;4990087;28;52099;-64
2022/03/16 08:03:54;;;;;;;;;32.25;30.25;;;;;12.49;70.50;101791.03;4989504;28;49590;-63
2022/03/16 08:06:20;;;;;;;;;33.00;30.00;;;;;12.47;70.22;101776.94;5008210;28;49520;-63
2022/03/16 08:08:46;;;;;;;;;32.00;30.25;;;;;12.14;69.69;101716.25;4994013;28;49707;-61
2022/03/16 08:11:11;;;;;;;;;31.25;30.75;;;;;12.16;69.62;101706.66;4985120;28;51075;-68
2022/03/16 08:13:37;;;;;;;;;35.75;29.00;;;;;12.19;69.70;101714.66;4975625;28;50046;-62
2022/03/16 08:16:04;;;;;;;;;35.00;32.50;;;;;12.47;69.66;101755.88;4984704;28;49667;-69
2022/03/16 08:18:30;;;;;;;;;35.00;28.75;;;;;12.39;69.51;101739.84;4988929;28;49764;-61
2022/03/16 08:20:56;;;;;;;;;36.50;33.50;;;;;12.22;69.49;101706.84;5005150;28;49857;-68
2022/03/16 08:23:21;;;;;;;;;37.00;31.00;;;;;12.25;69.26;101734.16;5011108;28;49535;-69
2022/03/16 08:25:47;;;;;;;;;29.75;29.75;;;;;12.66;69.50;101784.50;4994361;28;50675;-61
2022/03/16 08:28:12;;;;;;;;;43.75;34.25;;;;;12.64;69.10;101782.66;5003521;28;49765;-62
2022/03/16 08:30:38;;;;;;;;;39.00;35.00;;;;;12.25;69.60;101707.81;5010080;28;49469;-61
2022/03/16 08:33:03;;;;;;;;;30.00;28.25;;;;;12.49;69.20;101751.53;4987470;28;49560;-62
2022/03/16 08:35:29;;;;;;;;;31.50;30.50;;;;;12.37;69.27;101722.22;5000285;28;49736;-62
2022/03/16 08:37:55;;;;;;;;;38.50;34.50;;;;;12.74;69.37;101784.69;4989301;28;49880;-61
2022/03/16 08:40:21;;;;;;;;;45.50;38.00;;;;;12.54;68.80;101756.06;4992510;28;50934;-63
2022/03/16 08:42:46;;;;;;;;;34.75;29.00;;;;;12.76;68.80;101780.41;4993120;28;49982;-64
2022/03/16 08:45:12;;;;;;;;;35.00;30.25;;;;;12.50;68.60;101732.22;4992106;28;49826;-62
2022/03/16 08:47:38;;;;;;;;;33.00;30.75;;;;;12.31;68.50;101699.22;4975284;28;49738;-63
2022/03/16 08:50:04;;;;;;;;;36.75;34.50;;;;;11.84;68.69;101619.78;4975321;28;52366;-68
2022/03/16 08:52:29;;;;;;;;;30.75;30.00;;;;;12.88;68.28;101805.34;4975037;28;49789;-63
2022/03/16 08:54:55;;;;;;;;;39.00;36.25;;;;;12.91;68.20;101791.34;4993076;28;49845;-63
2022/03/16 08:57:22;;;;;;;;;35.00;32.25;;;;;12.92;67.77;101790.50;4992457;28;49729;-64
2022/03/16 08:59:48;;;;;;;;;37.75;33.75;;;;;12.75;68.05;101753.16;4992321;28;51175;-63
2022/03/16 09:02:14;;;;;;;;;29.50;29.50;;;;;12.97;67.72;101788.00;4992434;28;50153;-63
2022/03/16 09:04:39;;;;;;;;;32.25;31.25;;;;;12.92;67.96;101769.41;4992875;28;50010;-62
2022/03/16 09:07:05;;;;;;;;;38.00;35.00;;;;;12.86;67.88;101745.53;4992926;28;49845;-63
2022/03/16 09:09:30;;;;;;;;;34.75;32.25;;;;;13.33;67.67;101819.78;4992469;28;50502;-63
2022/03/16 09:11:56;;;;;;;;;35.75;33.25;;;;;12.95;67.01;101737.00;4992418;28;49828;-63
2022/03/16 09:14:21;;;;;;;;;31.00;30.25;;;;;12.98;66.48;101730.03;4992700;28;49822;-63
2022/03/16 09:16:47;;;;;;;;;36.00;33.75;;;;;13.41;66.29;101813.84;4992772;28;49992;-63
2022/03/16 09:19:20;;;;;;;;;37.00;33.25;;;;;13.17;66.50;101766.59;4991788;28;50647;-66
2022/03/16 09:21:47;;;;;;;;;37.75;31.00;;;;;13.48;65.83;101801.69;4992574;28;49975;-63
2022/03/16 09:24:12;;;;;;;;;27.25;24.50;;;;;13.54;66.08;101817.69;4992649;28;49929;-63
2022/03/16 09:26:38;;;;;;;;;37.25;30.00;;;;;13.11;66.05;101729.50;4992640;28;49958;-63
2022/03/16 09:29:03;;;;;;;;;31.00;29.00;;;;;13.68;66.19;101821.53;4992255;28;50422;-63
2022/03/16 09:31:28;;;;;;;;;32.00;29.25;;;;;13.76;65.35;101811.19;4992100;28;50048;-63
2022/03/16 09:33:54;;;;;;;;;36.75;33.75;;;;;13.81;65.23;101811.31;4991895;28;49715;-68
2022/03/16 09:36:19;;;;;;;;;31.75;30.25;;;;;13.58;65.44;101764.13;4991710;28;49912;-63
2022/03/16 09:38:45;;;;;;;;;35.00;32.50;;;;;12.30;65.02;101550.00;4990801;28;50171;-70
2022/03/16 09:41:10;;;;;;;;;38.25;32.25;;;;;13.87;64.74;101795.59;4991075;28;49780;-70
2022/03/16 09:43:36;;;;;;;;;33.50;30.00;;;;;14.02;64.51;101801.25;4972673;28;49836;-63
2022/03/16 09:46:04;;;;;;;;;39.50;36.00;;;;;14.08;64.52;101805.78;4991507;28;49929;-63
2022/03/16 09:48:31;;;;;;;;;32.25;31.25;;;;;14.01;64.66;101781.00;4991313;28;50257;-63
2022/03/16 09:50:58;;;;;;;;;32.75;31.25;;;;;14.06;64.40;101783.72;4991756;28;49633;-64
2022/03/16 09:53:28;;;;;;;;;35.25;32.75;;;;;14.24;63.39;101808.81;4991957;28;49989;-63
2022/03/16 09:55:56;;;;;;;;;37.50;31.75;;;;;14.29;63.74;101803.63;4992119;28;49743;-64
2022/03/16 09:58:22;;;;;;;;;36.50;32.00;;;;;13.42;63.34;101641.53;4991710;28;49849;-63
2022/03/16 10:00:49;;;;;;;;;33.75;30.75;;;;;14.41;63.74;101788.06;4991790;28;50195;-63
2022/03/16 10:03:16;;;;;;;;;41.75;35.50;;;;;14.26;63.34;101743.69;4991801;28;49823;-63
2022/03/16 10:05:44;;;;;;;;;34.25;32.25;;;;;14.55;62.74;101789.25;4991768;28;49973;-63
2022/03/16 10:08:10;;;;;;;;;29.75;26.50;;;;;14.42;62.98;101747.56;4974013;28;51653;-64
2022/03/16 10:13:24;;;;;;;;;32.75;31.00;;;;;14.48;62.31;101741.56;4991937;28;49703;-64
2022/03/16 10:15:52;;;;;;;;;36.50;31.50;;;;;14.86;62.16;101788.13;4991534;28;49643;-64
2022/03/16 10:18:21;;;;;;;;;38.75;32.75;;;;;14.97;61.79;101785.69;4991338;28;50662;-63
2022/03/16 10:20:47;;;;;;;;;35.75;33.50;;;;;14.08;61.42;101627.13;4991431;28;49877;-64
2022/03/16 10:23:14;;;;;;;;;40.75;35.00;;;;;15.11;61.78;101776.25;4973835;28;49854;-63
2022/03/16 10:25:46;;;;;;;;;37.75;33.00;;;;;15.16;61.89;101779.00;4991634;28;50015;-64
2022/03/16 10:28:24;;;;;;;;;42.25;35.50;;;;;14.86;61.06;101711.47;4991319;28;49738;-63
2022/03/16 10:31:08;;;;;;;;;39.50;34.75;;;;;15.29;61.67;101785.38;4990078;28;49643;-64
2022/03/16 10:33:46;;;;;;;;;38.00;35.25;;;;;15.38;61.90;101783.81;4991621;28;49828;-63
2022/03/16 10:36:14;;;;;;;;;38.00;35.00;;;;;15.20;61.49;101740.25;4991632;28;49679;-63
2022/03/16 10:38:45;;;;;;;;;40.50;36.00;;;;;14.53;60.25;101648.28;4991011;28;50617;-63
2022/03/16 10:46:34;;;;;;;;;37.25;35.25;;;;;15.39;60.13;101766.16;4991049;28;49604;-65
2022/03/16 10:46:46;;;;;;;;;46.00;37.00;;;;;15.39;60.44;101735.31;4991236;28;49794;-65
2022/03/16 10:49:16;;;;;;;;;38.50;34.75;;;;;15.37;60.01;101715.88;4991025;28;49841;-64
2022/03/16 10:51:43;;;;;;;;;39.00;34.75;;;;;15.74;59.97;101761.50;4989666;28;50460;-65
2022/03/16 10:54:08;;;;;;;;;47.50;36.50;;;;;15.67;59.54;101786.97;4991507;28;50044;-65
2022/03/16 10:56:37;;;;;;;;;42.50;35.25;;;;;15.52;59.46;101709.91;4991225;28;49841;-63
2022/03/16 10:59:03;;;;;;;;;45.75;37.00;;;;;15.39;59.68;101671.81;4990599;28;49823;-64
2022/03/16 11:01:29;;;;;;;;;45.00;36.00;;;;;15.96;59.31;101766.22;4990579;28;49846;-64
2022/03/16 11:03:58;;;;;;;;;39.25;35.50;;;;;15.97;59.13;101738.88;4991299;28;50072;-63
2022/03/16 11:06:24;;;;;;;;;40.75;36.00;;;;;16.02;58.95;101734.56;4990914;28;49769;-63
2022/03/16 11:08:50;;;;;;;;;41.00;36.25;;;;;16.17;58.45;101732.97;4990798;28;49869;-68
2022/03/16 11:14:03;;;;;;;;;63.75;48.25;;;;;16.09;57.70;101681.66;4990841;28;49770;-67
2022/03/16 11:16:30;;;;;;;;;48.00;40.75;;;;;16.34;57.75;101728.78;4972742;28;49979;-66
2022/03/16 11:18:57;;;;;;;;;38.50;34.50;;;;;16.36;57.59;101716.44;4990132;28;49879;-64